Hovedside
METAR-TAF:

METAR-TAF

Lufthavner :

Philip S. W. Goldson internasjonale lufthavn

Belize City, Belize

breddegrad: 17-32N, lengdegrad: 088-18W, høyde over havet: 5 m

Gjeldene værobservasjon

Denne rapporten ble laget for 1 time og 2 minutter siden, klokken 15:00 UTC
Vind 4 kt fra Nord-nordvest
Temperatur 24°C
Luftfuktighet 74%
Trykk 1018 hPa
Sikt 10 km eller mer
ingen skyer under 1500 m og ingen bygeskyer

METAR: MZBZ 201500Z 33004KT CAVOK 24/19 A3006 Q1018 NOSIG

Tid: 10:02 (16:02 UTC)

Varsel

Denne rapporten ble laget for 5 timer og 2 minutter siden, klokken 11:00 UTC
Varsel gyldig fra 20. klokken 12 UTC til 21. klokken 12 UTC
Vind 5 kt fra Nordvest
Sikt 10 km eller mer
Få skyer i en høyde av 2000 ft
Blir
fra 20. klokken 17 UTC til 20. klokken 19 UTC
Vind 7 kt fra Nordøst
Spredte skyer i en høyde av 2200 ft
Spredte skyer i en høyde av 4500 ft

TAF: MZBZ 201100Z 2012/2112 32005KT 9999 FEW020 BECMG 2017/2019 04007KT SCT022 SCT045

Værobservasjoner og værvarsel for over 4000 flyplasser (METAR- og TAF-rapporter).

Tilgjengelige stasjoner er representert av de røde og gule prikkene på kartet.

Hold musepekeren over prikken for å se navnet på stasjonen.

Klikk så for å se værobservasjoner og -varsler.

For å forandre kartet kan du klikke på den grønne knappen med svart kryss for å zoome inn, på den grønne knappen med strek for å zoome ut, eller på de grønne pilene for å se tilstøtende kart.


METAR-TAF: